Time;durP1;ratioP1;P1;durP2;ratioP2;P2;SDS_P1;SDS_P2;PMS_P1;PMS_P2;Temp;Humidity;BMP_temperature;BMP_pressure;BME280_temperature;BME280_humidity;BME280_pressure;Samples;Min_cycle;Max_cycle;Signal;HPM_P1;HPM_P2
2023/06/16 00:00:21;;;;;;;7.53;6.80;;;;;;;-144.30;100.00;84959.13;5111064;28;20205;-61
2023/06/16 00:02:49;;;;;;;7.20;6.60;;;;;;;-144.30;99.81;84883.59;5110832;28;20198;-57
2023/06/16 00:05:16;;;;;;;8.73;7.35;;;;;;;-144.30;100.00;84996.88;5110998;28;20248;-57
2023/06/16 00:07:43;;;;;;;9.13;7.28;;;;;;;-144.30;100.00;85022.72;5110865;28;20289;-57
2023/06/16 00:10:12;;;;;;;7.53;6.70;;;;;;;-144.30;100.00;85026.69;5110865;28;20571;-59
2023/06/16 00:12:40;;;;;;;9.15;7.03;;;;;;;-144.30;99.57;85024.72;5110911;28;20367;-57
2023/06/16 00:15:09;;;;;;;9.77;7.30;;;;;;;-144.30;100.00;85000.84;5110850;28;20198;-57
2023/06/16 00:17:44;;;;;;;9.77;6.97;;;;;;;-144.30;100.00;85034.66;5110784;28;20633;-58
2023/06/16 00:20:12;;;;;;;10.43;7.57;;;;;;;-144.30;100.00;84994.91;5110716;28;20653;-56
2023/06/16 00:22:39;;;;;;;7.47;6.88;;;;;;;-144.30;100.00;85010.78;5110655;28;20191;-59
2023/06/16 00:25:07;;;;;;;7.97;7.13;;;;;;;-144.30;100.00;85004.84;5110425;28;20233;-57
2023/06/16 00:27:36;;;;;;;8.10;7.43;;;;;;;-144.30;100.00;85042.59;5110855;28;20191;-57
2023/06/16 00:30:05;;;;;;;8.10;7.60;;;;;;;-144.30;100.00;85024.72;5110250;28;20202;-56
2023/06/16 00:32:32;;;;;;;9.25;8.27;;;;;;;-144.30;100.00;85078.38;5110495;28;20194;-56
2023/06/16 00:34:59;;;;;;;8.15;7.50;;;;;;;-144.30;100.00;85030.66;5109642;28;20964;-56
2023/06/16 00:37:26;;;;;;;9.38;8.27;;;;;;;-144.30;100.00;85060.50;5110210;28;20222;-57
2023/06/16 00:39:55;;;;;;;8.52;7.75;;;;;;;-144.30;100.00;85084.34;5110322;28;20212;-57
2023/06/16 00:42:22;;;;;;;8.45;7.72;;;;;;;-144.30;100.00;85068.44;5110562;28;20195;-56
2023/06/16 00:44:50;;;;;;;11.20;9.07;;;;;;;-144.30;100.00;85098.25;5110155;28;20205;-61
2023/06/16 00:47:17;;;;;;;15.43;7.90;;;;;;;-144.30;100.00;85116.16;5110125;28;20261;-62
2023/06/16 00:49:44;;;;;;;8.82;8.02;;;;;;;-144.30;100.00;85110.19;5110278;28;20195;-62
2023/06/16 00:52:15;;;;;;;9.45;8.65;;;;;;;-144.30;100.00;85124.09;5109864;28;20205;-62
2023/06/16 00:54:42;;;;;;;9.57;8.65;;;;;;;-144.30;100.00;85130.06;5110085;28;20197;-61
2023/06/16 00:57:09;;;;;;;9.38;8.50;;;;;;;-144.30;100.00;85110.19;5109720;28;20732;-61
2023/06/16 00:59:35;;;;;;;9.18;8.23;;;;;;;-144.30;100.00;85096.25;5110097;28;20244;-61
2023/06/16 01:02:04;;;;;;;9.45;8.45;;;;;;;-144.30;100.00;85100.25;5110033;28;20651;-60
2023/06/16 01:04:32;;;;;;;8.75;8.05;;;;;;;-144.30;100.00;85161.88;5109741;28;20201;-61
2023/06/16 01:07:09;;;;;;;9.63;8.82;;;;;;;-144.30;100.00;85132.03;5109621;28;20190;-61
2023/06/16 01:09:47;;;;;;;12.10;8.55;;;;;;;-144.30;100.00;85132.03;5109799;28;20317;-62
2023/06/16 01:12:25;;;;;;;9.10;8.40;;;;;;;-144.30;100.00;85114.16;5109690;28;20194;-57
2023/06/16 01:15:02;;;;;;;9.38;8.48;;;;;;;-144.30;100.00;85149.94;5109796;28;20210;-61
2023/06/16 01:17:32;;;;;;;9.07;8.23;;;;;;;-144.30;100.00;85110.19;5109695;28;20309;-61
2023/06/16 01:20:10;;;;;;;10.48;9.07;;;;;;;-144.30;100.00;85090.31;5109507;28;20199;-61
2023/06/16 01:22:57;;;;;;;9.40;8.45;;;;;;;-144.30;100.00;85134.03;5109830;28;20198;-62
2023/06/16 01:25:30;;;;;;;11.60;8.23;;;;;;;-144.30;100.00;85090.31;5109639;28;20190;-61
2023/06/16 01:28:00;;;;;;;8.70;7.82;;;;;;;-144.30;100.00;85159.88;5109944;28;20195;-61
2023/06/16 01:30:30;;;;;;;11.18;8.82;;;;;;;-144.30;100.00;85149.94;5109464;28;20300;-61
2023/06/16 01:32:58;;;;;;;9.52;8.80;;;;;;;-144.30;100.00;85173.78;5109507;28;20602;-61
2023/06/16 01:35:27;;;;;;;9.43;8.55;;;;;;;-144.30;100.00;85151.94;5109736;28;20613;-62
2023/06/16 01:37:56;;;;;;;8.88;8.27;;;;;;;-144.30;100.00;85153.91;5109456;28;20610;-61
2023/06/16 01:40:26;;;;;;;9.50;8.70;;;;;;;-144.30;100.00;85189.69;5109331;28;20190;-61
2023/06/16 01:42:53;;;;;;;11.82;9.63;;;;;;;-144.30;100.00;85159.88;5109324;28;20190;-61
2023/06/16 01:45:21;;;;;;;10.02;9.23;;;;;;;-144.30;100.00;85183.72;5109451;28;20637;-61
2023/06/16 01:47:48;;;;;;;10.35;9.25;;;;;;;-144.30;100.00;85058.50;5113162;28;20197;-61
2023/06/16 01:50:15;;;;;;;11.63;9.02;;;;;;;-144.30;100.00;85199.63;5113177;28;20200;-57
2023/06/16 01:52:42;;;;;;;9.77;8.80;;;;;;;-144.30;100.00;85153.91;5113732;28;20233;-56
2023/06/16 01:55:09;;;;;;;10.60;9.25;;;;;;;-144.30;100.00;85185.72;5113230;28;20197;-56
2023/06/16 01:57:38;;;;;;;11.75;8.85;;;;;;;-144.30;100.00;85155.91;5113194;28;20229;-56
2023/06/16 02:00:10;;;;;;;10.55;9.43;;;;;;;-144.30;100.00;85193.66;5113227;28;20206;-57
2023/06/16 02:02:41;;;;;;;17.58;10.57;;;;;;;-144.30;100.00;85221.50;5113260;28;20198;-56
2023/06/16 02:05:11;;;;;;;10.05;9.25;;;;;;;-144.30;100.00;85189.69;5113229;28;20201;-62
2023/06/16 02:07:42;;;;;;;10.25;9.20;;;;;;;-144.30;100.00;85187.69;5113199;28;20226;-56
2023/06/16 02:10:10;;;;;;;10.05;8.90;;;;;;;-144.30;100.00;85161.88;5112996;28;20186;-57
2023/06/16 02:12:39;;;;;;;11.10;9.80;;;;;;;-144.30;100.00;85215.53;5113210;28;20261;-60
2023/06/16 02:15:07;;;;;;;10.20;9.30;;;;;;;-144.30;100.00;85207.59;5113306;28;20203;-56
2023/06/16 02:17:34;;;;;;;12.43;9.40;;;;;;;-144.30;100.00;85237.41;5112942;28;20225;-57
2023/06/16 02:20:04;;;;;;;11.48;10.00;;;;;;;-144.30;100.00;85217.53;5112967;28;20202;-57
2023/06/16 02:22:31;;;;;;;10.88;9.90;;;;;;;-144.30;100.00;85213.53;5112885;28;20260;-56
2023/06/16 02:25:00;;;;;;;12.68;9.98;;;;;;;-144.30;100.00;85235.41;5113105;28;20567;-56
2023/06/16 02:27:27;;;;;;;10.48;9.48;;;;;;;-144.30;100.00;85197.66;5113137;28;20555;-57
2023/06/16 02:29:55;;;;;;;15.82;10.13;;;;;;;-144.30;100.00;85195.66;5112964;28;20255;-57
2023/06/16 02:32:22;;;;;;;13.23;10.02;;;;;;;-144.30;100.00;85241.38;5112707;28;20197;-56
2023/06/16 02:34:52;;;;;;;12.52;9.88;;;;;;;-144.30;100.00;85211.56;5112516;28;20644;-56
2023/06/16 02:37:20;;;;;;;11.18;10.07;;;;;;;-144.30;100.00;85251.31;5112456;28;20218;-58
2023/06/16 02:39:47;;;;;;;10.88;9.68;;;;;;;-144.30;100.00;85261.25;5112687;28;20205;-57
2023/06/16 02:42:15;;;;;;;11.18;10.27;;;;;;;-144.30;100.00;85239.38;5112609;28;20735;-56
2023/06/16 02:44:42;;;;;;;11.80;10.55;;;;;;;-144.30;100.00;85219.50;5112656;28;20199;-56
2023/06/16 02:47:10;;;;;;;12.25;11.02;;;;;;;-144.30;100.00;85239.38;5112435;28;20191;-56
2023/06/16 02:49:42;;;;;;;12.10;10.82;;;;;;;-144.30;100.00;85275.16;5112322;28;20202;-61
2023/06/16 02:52:09;;;;;;;12.13;11.02;;;;;;;-144.30;100.00;85217.53;5112273;28;20787;-56
2023/06/16 02:54:36;;;;;;;14.27;10.55;;;;;;;-144.30;100.00;85245.34;5112200;28;20202;-57
2023/06/16 02:57:04;;;;;;;11.35;10.20;;;;;;;-144.30;100.00;85273.19;5111222;28;20219;-57
2023/06/16 02:59:31;;;;;;;17.20;12.32;;;;;;;-144.30;100.00;85253.31;5112234;28;20230;-55
2023/06/16 03:01:58;;;;;;;12.10;11.00;;;;;;;-144.30;100.00;85237.41;5112332;28;20670;-56
2023/06/16 03:04:27;;;;;;;11.55;10.38;;;;;;;-144.30;100.00;85213.53;5112138;28;20203;-57
2023/06/16 03:06:57;;;;;;;12.75;11.45;;;;;;;-144.30;100.00;85251.31;5112312;28;20251;-56
2023/06/16 03:09:24;;;;;;;16.27;11.38;;;;;;;-144.30;100.00;85249.34;5111892;28;20281;-56
2023/06/16 03:11:51;;;;;;;12.20;10.73;;;;;;;-144.30;100.00;85225.47;5112195;28;20215;-63
2023/06/16 03:14:19;;;;;;;12.23;11.07;;;;;;;-144.30;100.00;85205.59;5111651;28;20597;-62
2023/06/16 03:16:47;;;;;;;11.60;10.38;;;;;;;-144.30;100.00;85251.31;5108623;28;20218;-56
2023/06/16 03:19:15;;;;;;;11.75;10.65;;;;;;;-144.30;100.00;85191.69;5111220;28;20199;-56
2023/06/16 03:21:44;;;;;;;11.75;10.50;;;;;;;-144.30;100.00;85187.69;5110381;28;20196;-62
2023/06/16 03:24:13;;;;;;;13.02;11.80;;;;;;;-144.30;100.00;85177.75;5111134;28;20194;-62
2023/06/16 03:26:40;;;;;;;12.52;11.40;;;;;;;-144.30;100.00;85171.81;5111906;28;20199;-63
2023/06/16 03:29:07;;;;;;;16.77;11.55;;;;;;;-144.30;100.00;85171.81;5110774;28;20213;-62
2023/06/16 03:31:34;;;;;;;11.27;10.32;;;;;;;-144.30;100.00;85185.72;5110780;28;20199;-62
2023/06/16 03:34:01;;;;;;;12.88;11.57;;;;;;;-144.30;100.00;85122.09;5098871;28;20230;-62
2023/06/16 03:36:28;;;;;;;12.88;10.93;;;;;;;-144.30;100.00;85189.69;5111276;28;20209;-63
2023/06/16 03:38:56;;;;;;;13.63;12.30;;;;;;;-144.30;100.00;85147.94;5109372;28;20317;-63
2023/06/16 03:41:23;;;;;;;12.80;11.27;;;;;;;-144.30;100.00;85138.00;5102597;28;20232;-62
2023/06/16 03:43:50;;;;;;;12.63;11.45;;;;;;;-144.30;100.00;85179.75;5091023;28;20199;-62
2023/06/16 03:46:17;;;;;;;12.73;11.52;;;;;;;-144.30;100.00;85132.03;5094794;28;20271;-62
2023/06/16 03:48:44;;;;;;;15.27;12.18;;;;;;;-144.30;100.00;85181.75;5111449;28;20676;-61
2023/06/16 03:51:11;;;;;;;15.65;10.90;;;;;;;-144.30;100.00;85149.94;5111239;28;20683;-61
2023/06/16 03:53:38;;;;;;;15.07;12.98;;;;;;;-144.30;100.00;85171.81;5111217;28;20214;-56
2023/06/16 03:56:07;;;;;;;26.17;13.95;;;;;;;-144.30;100.00;85124.09;5107528;28;20206;-56
2023/06/16 03:58:34;;;;;;;15.60;12.38;;;;;;;-144.30;100.00;85175.78;5110040;28;20226;-59
2023/06/16 04:01:02;;;;;;;21.15;13.65;;;;;;;-144.30;100.00;85118.13;5110063;28;20742;-60
2023/06/16 04:03:28;;;;;;;14.73;12.55;;;;;;;-144.30;100.00;85177.75;5107174;27;20205;-60
2023/06/16 04:05:55;;;;;;;13.93;12.48;;;;;;;-144.30;100.00;85155.91;5109502;28;20229;-56
2023/06/16 04:08:22;;;;;;;13.90;12.50;;;;;;;-144.30;100.00;85183.72;5109799;28;20190;-56
2023/06/16 04:10:49;;;;;;;19.42;13.20;;;;;;;-144.30;100.00;85140.00;5110072;28;20226;-55
2023/06/16 04:13:18;;;;;;;14.05;12.65;;;;;;;-144.30;100.00;85134.03;5109141;28;20686;-56
2023/06/16 04:15:45;;;;;;;14.63;12.73;;;;;;;-144.30;100.00;85159.88;5109900;28;20764;-56
2023/06/16 04:18:11;;;;;;;13.45;12.15;;;;;;;-144.30;100.00;85130.06;5110306;28;20222;-57
2023/06/16 04:20:38;;;;;;;13.10;11.95;;;;;;;-144.30;100.00;85138.00;5110341;28;20628;-57
2023/06/16 04:23:06;;;;;;;14.68;12.43;;;;;;;-144.30;100.00;85141.97;5109949;28;20190;-56
2023/06/16 04:25:35;;;;;;;15.63;12.48;;;;;;;-144.30;100.00;85138.00;5109826;28;20198;-57
2023/06/16 04:28:02;;;;;;;14.02;12.73;;;;;;;-144.30;100.00;85086.31;5089903;28;20639;-56
2023/06/16 04:30:33;;;;;;;14.73;13.07;;;;;;;-144.30;100.00;85140.00;5109332;28;20194;-57
2023/06/16 04:33:01;;;;;;;15.88;13.30;;;;;;;-144.30;100.00;85120.13;5109677;28;20651;-57
2023/06/16 04:35:29;;;;;;;14.65;13.13;;;;;;;-144.30;100.00;85112.16;5109982;28;20199;-57
2023/06/16 04:37:57;;;;;;;14.23;12.30;;;;;;;-144.30;100.00;85086.31;5109654;28;20229;-56
2023/06/16 04:40:24;;;;;;;13.88;12.48;;;;;;;-144.30;100.00;85104.22;5109763;28;20190;-56
2023/06/16 04:42:51;;;;;;;18.13;13.23;;;;;;;-144.30;100.00;85068.44;5106308;28;21006;-56
2023/06/16 04:45:18;;;;;;;14.68;13.05;;;;;;;-144.30;100.00;85036.63;5106147;28;20627;-56
2023/06/16 04:47:47;;;;;;;15.02;13.55;;;;;;;-144.30;100.00;85074.41;5109969;28;20286;-57
2023/06/16 04:50:15;;;;;;;14.88;13.48;;;;;;;-144.30;100.00;85006.81;5109771;28;20194;-58
2023/06/16 04:52:42;;;;;;;15.77;14.18;;;;;;;-144.30;100.00;84895.50;5109679;28;20199;-56
2023/06/16 04:55:09;;;;;;;14.10;12.77;;;;;;;-144.30;96.48;84816.00;5109266;28;20277;-56
2023/06/16 04:57:37;;;;;;;13.43;12.00;;;;;;;-144.30;90.94;84664.94;5110015;28;20217;-59
2023/06/16 05:00:06;;;;;;;15.07;12.40;;;;;;;-144.30;88.41;84585.44;5109882;28;20187;-57
2023/06/16 05:02:34;;;;;;;14.48;11.50;;;;;;;-144.30;84.33;84408.56;5109420;28;20221;-56
2023/06/16 05:05:03;;;;;;;16.05;11.65;;;;;;;-144.30;80.80;84247.59;5109514;28;20201;-59
2023/06/16 05:07:31;;;;;;;13.93;11.30;;;;;;;-144.30;79.42;84207.84;5109662;28;20194;-58
2023/06/16 05:09:58;;;;;;;12.82;11.32;;;;;;;-144.30;76.67;84003.16;5110196;28;20562;-58
2023/06/16 05:12:25;;;;;;;12.90;10.57;;;;;;;-144.30;72.10;83891.88;5109907;28;20194;-58
2023/06/16 05:14:52;;;;;;;11.25;10.25;;;;;;;-144.30;69.66;83740.88;5110127;28;20663;-57
2023/06/16 05:17:19;;;;;;;11.30;10.35;;;;;;;-144.30;68.28;83643.50;5110185;28;20237;-57
2023/06/16 05:19:46;;;;;;;11.05;9.95;;;;;;;-144.30;66.62;83552.13;5110113;28;20202;-57
2023/06/16 05:22:15;;;;;;;10.10;9.35;;;;;;;-144.30;60.25;83434.91;5110072;28;20638;-57
2023/06/16 05:24:42;;;;;;;11.55;9.48;;;;;;;-144.30;59.09;83434.91;5107396;28;20193;-58
2023/06/16 05:27:09;;;;;;;9.60;8.90;;;;;;;-144.30;58.12;83436.88;5090197;28;20210;-58
2023/06/16 05:29:36;;;;;;;10.05;9.38;;;;;;;-144.30;58.19;83466.69;5099844;28;20190;-59
2023/06/16 05:32:03;;;;;;;10.27;9.43;;;;;;;-144.30;60.70;83623.66;5109426;28;20199;-58
2023/06/16 05:34:30;;;;;;;11.05;9.95;;;;;;;-144.30;61.11;83685.25;5109844;28;20230;-57
2023/06/16 05:36:56;;;;;;;11.27;10.25;;;;;;;-144.30;62.00;83762.72;5110067;28;20730;-58
2023/06/16 05:39:25;;;;;;;11.40;10.20;;;;;;;-144.30;64.32;83889.91;5108918;28;20211;-57
2023/06/16 05:41:52;;;;;;;10.50;9.65;;;;;;;-144.30;65.35;83997.22;5109241;28;20674;-57
2023/06/16 05:44:18;;;;;;;11.15;10.00;;;;;;;-144.30;66.47;84027.00;5109008;28;20666;-58
2023/06/16 05:46:45;;;;;;;10.88;9.98;;;;;;;-144.30;65.90;83868.03;5109936;28;20485;-57
2023/06/16 05:49:12;;;;;;;11.98;9.48;;;;;;;-144.30;62.32;83766.72;5109856;28;20216;-57
2023/06/16 05:51:39;;;;;;;11.35;10.23;;;;;;;-144.30;62.37;83770.69;5110034;28;20202;-58
2023/06/16 05:54:06;;;;;;;11.55;10.50;;;;;;;-144.30;63.82;83949.50;5109789;28;20199;-58
2023/06/16 05:56:34;;;;;;;10.80;9.80;;;;;;;-144.30;64.66;83935.59;5109899;28;20286;-57
2023/06/16 05:59:01;;;;;;;11.30;10.27;;;;;;;-144.30;65.88;84011.13;5109843;28;20222;-58
2023/06/16 06:01:28;;;;;;;11.45;10.35;;;;;;;-144.30;66.70;84042.91;5109529;28;20220;-60
2023/06/16 06:03:55;;;;;;;11.68;10.65;;;;;;;-144.30;69.18;84160.16;5109813;28;20205;-61
2023/06/16 06:06:22;;;;;;;11.40;10.50;;;;;;;-144.30;69.57;84178.03;5109559;28;20198;-61
2023/06/16 06:08:50;;;;;;;12.32;11.05;;;;;;;-144.30;67.44;84023.03;5109048;28;20201;-61
2023/06/16 06:11:17;;;;;;;10.63;9.68;;;;;;;-144.30;65.66;84001.19;5109276;28;20718;-62
2023/06/16 06:13:45;;;;;;;12.10;11.02;;;;;;;-144.30;65.59;83989.25;5109696;28;20589;-61
2023/06/16 06:16:12;;;;;;;13.20;11.88;;;;;;;-144.30;66.71;84023.03;5110029;28;20625;-62
2023/06/16 06:18:43;;;;;;;13.77;12.40;;;;;;;-144.30;65.37;83897.84;5109576;28;20279;-62
2023/06/16 06:21:10;;;;;;;11.80;10.63;;;;;;;-144.30;63.75;83915.75;5109984;28;20638;-61
2023/06/16 06:23:37;;;;;;;11.60;10.68;;;;;;;-144.30;62.77;83876.00;5110902;28;20206;-60
2023/06/16 06:26:04;;;;;;;13.20;11.95;;;;;;;-144.30;63.72;83995.22;5110254;28;20236;-62
2023/06/16 06:28:31;;;;;;;12.65;11.55;;;;;;;-144.30;63.94;84044.91;5110153;28;20195;-63
2023/06/16 06:31:00;;;;;;;12.57;11.25;;;;;;;-144.30;63.73;84044.91;5109765;28;20198;-62
2023/06/16 06:33:27;;;;;;;12.88;11.73;;;;;;;-144.30;65.25;84082.66;5112238;28;20265;-62
2023/06/16 06:35:54;;;;;;;13.40;12.10;;;;;;;-144.30;66.00;84040.91;5113443;28;20264;-64
2023/06/16 06:38:21;;;;;;;13.30;12.30;;;;;;;-144.30;67.33;84225.75;5109787;28;20229;-62
2023/06/16 06:40:48;;;;;;;15.07;13.77;;;;;;;-144.30;68.54;84233.69;5112555;28;20202;-61
2023/06/16 06:43:15;;;;;;;14.05;12.95;;;;;;;-144.30;69.68;84309.19;5111609;28;20202;-60
2023/06/16 06:45:42;;;;;;;13.82;12.52;;;;;;;-144.30;70.70;84333.06;5113360;28;20539;-61
2023/06/16 06:48:11;;;;;;;14.35;12.93;;;;;;;-144.30;71.01;84339.00;5112891;28;20195;-61
2023/06/16 06:50:38;;;;;;;14.45;13.13;;;;;;;-144.30;71.92;84352.91;5113364;28;20198;-56
2023/06/16 06:53:04;;;;;;;16.65;15.02;;;;;;;-144.30;72.44;84382.72;5112886;28;20195;-56
2023/06/16 06:55:31;;;;;;;17.60;16.02;;;;;;;-144.30;73.09;84412.53;5112419;28;20218;-56
2023/06/16 06:57:58;;;;;;;17.05;14.90;;;;;;;-144.30;73.85;84484.09;5112733;28;20236;-55
2023/06/16 07:00:25;;;;;;;15.60;14.25;;;;;;;-144.30;75.13;84440.38;5112720;28;20207;-56
2023/06/16 07:02:52;;;;;;;17.13;14.07;;;;;;;-144.30;73.61;84404.59;5112934;28;20582;-56
2023/06/16 07:05:20;;;;;;;15.38;13.63;;;;;;;-144.30;72.68;84325.09;5108462;28;20194;-57
2023/06/16 07:07:47;;;;;;;17.17;15.50;;;;;;;-144.30;71.84;84370.81;5112539;28;20244;-56
2023/06/16 07:10:14;;;;;;;17.08;14.63;;;;;;;-144.30;71.80;84339.00;5112584;28;20574;-57
2023/06/16 07:12:41;;;;;;;16.70;14.48;;;;;;;-144.30;71.67;84301.25;5112482;28;20194;-57
2023/06/16 07:15:09;;;;;;;19.92;16.08;;;;;;;-144.30;69.99;84233.69;5112613;28;20205;-56
2023/06/16 07:17:35;;;;;;;15.30;13.23;;;;;;;-144.30;66.95;84152.22;5112041;28;20202;-56
2023/06/16 07:20:03;;;;;;;19.23;13.43;;;;;;;-144.30;65.81;84088.63;5111888;28;20195;-56
2023/06/16 07:22:32;;;;;;;14.70;13.30;;;;;;;-144.30;65.12;84032.97;5112120;28;20190;-56
2023/06/16 07:24:59;;;;;;;12.82;11.93;;;;;;;-144.30;66.12;84084.66;5112272;28;20198;-57
2023/06/16 07:27:25;;;;;;;11.82;10.70;;;;;;;-144.30;64.53;84056.81;5112193;28;20674;-57
2023/06/16 07:29:52;;;;;;;13.98;12.40;;;;;;;-144.30;64.30;84122.41;5112019;28;20209;-61
2023/06/16 07:32:19;;;;;;;14.48;13.02;;;;;;;-144.30;64.46;84140.28;5111487;28;20194;-60
2023/06/16 07:34:46;;;;;;;15.23;13.85;;;;;;;-144.30;65.38;84456.25;5111011;28;20225;-61
2023/06/16 07:37:13;;;;;;;13.10;11.52;;;;;;;-144.30;62.64;84031.00;5111055;28;20244;-56
2023/06/16 07:39:42;;;;;;;11.13;10.02;;;;;;;-144.30;60.91;84084.66;5110776;28;20671;-57
2023/06/16 07:42:09;;;;;;;10.20;9.00;;;;;;;-144.30;60.55;84156.19;5111250;28;20585;-61
2023/06/16 07:44:36;;;;;;;10.70;8.98;;;;;;;-144.30;59.82;84124.38;5112007;28;20195;-57
2023/06/16 07:47:03;;;;;;;9.90;9.15;;;;;;;-144.30;59.57;83957.47;5111334;28;20206;-61
2023/06/16 07:49:30;;;;;;;10.80;9.73;;;;;;;-144.30;58.51;84118.41;5111876;28;20195;-60
2023/06/16 07:51:57;;;;;;;11.63;10.45;;;;;;;-144.30;61.13;84160.16;5112187;28;20199;-56
2023/06/16 07:54:24;;;;;;;12.30;11.23;;;;;;;-144.30;61.46;84104.50;5111560;28;20674;-57
2023/06/16 07:56:52;;;;;;;13.30;11.63;;;;;;;-144.30;61.01;84130.34;5111834;28;20199;-55
2023/06/16 07:59:19;;;;;;;11.38;10.45;;;;;;;-144.30;62.30;84110.47;5111328;28;20227;-56
2023/06/16 08:01:46;;;;;;;12.57;11.45;;;;;;;-144.30;62.07;84120.41;5111319;28;20199;-58
2023/06/16 08:04:13;;;;;;;12.68;11.43;;;;;;;-144.30;61.13;83945.53;5111364;28;20194;-56
2023/06/16 08:06:41;;;;;;;12.35;11.15;;;;;;;-144.30;59.66;83870.03;5111691;28;20199;-60
2023/06/16 08:09:08;;;;;;;11.75;10.65;;;;;;;-144.30;57.18;83667.34;5111272;28;20678;-60
2023/06/16 08:11:35;;;;;;;12.27;11.18;;;;;;;-144.30;55.93;83651.47;5110804;28;20199;-57
2023/06/16 08:14:04;;;;;;;13.13;11.82;;;;;;;-144.30;55.73;83615.69;5108254;28;20197;-58
2023/06/16 08:16:30;;;;;;;13.18;11.88;;;;;;;-144.30;55.08;83448.81;5109271;28;20207;-58
2023/06/16 08:18:59;;;;;;;13.25;12.05;;;;;;;-144.30;56.05;83424.97;5110231;28;20229;-57
2023/06/16 08:21:26;;;;;;;13.90;12.57;;;;;;;-144.30;55.15;83458.72;5110500;28;20194;-60
2023/06/16 08:23:53;;;;;;;14.20;12.85;;;;;;;-144.30;54.63;83562.06;5110482;28;20194;-57
2023/06/16 08:26:20;;;;;;;12.73;11.65;;;;;;;-144.30;55.52;83649.47;5110278;28;20202;-56
2023/06/16 08:28:47;;;;;;;13.43;12.23;;;;;;;-144.30;56.51;83705.09;5109555;28;20214;-56
2023/06/16 08:31:15;;;;;;;14.65;13.07;;;;;;;-144.30;56.06;83679.28;5110036;28;20198;-60
2023/06/16 08:33:42;;;;;;;13.52;12.43;;;;;;;-144.30;55.68;83512.38;5110103;28;20288;-61
2023/06/16 08:36:09;;;;;;;12.43;11.38;;;;;;;-144.30;54.87;83438.88;5106488;28;20201;-61
2023/06/16 08:38:37;;;;;;;12.82;11.50;;;;;;;-144.30;52.92;83428.94;5108861;28;20246;-60
2023/06/16 08:41:07;;;;;;;11.15;10.18;;;;;;;-144.30;52.00;83270.00;5109404;28;20203;-58
2023/06/16 08:43:36;;;;;;;9.45;8.75;;;;;;;-144.30;49.13;83285.88;5110088;28;20191;-56
2023/06/16 08:46:05;;;;;;;9.05;8.38;;;;;;;-144.30;49.40;83321.66;5109690;28;20656;-56
2023/06/16 08:48:35;;;;;;;8.68;8.00;;;;;;;-144.30;50.40;83504.44;5110215;28;20674;-58
2023/06/16 08:51:03;;;;;;;9.40;8.43;;;;;;;-144.30;50.07;83417.00;5110242;28;20697;-58
2023/06/16 08:53:33;;;;;;;8.65;7.85;;;;;;;-144.30;50.19;83462.72;5109873;28;20199;-56
2023/06/16 08:56:02;;;;;;;8.48;7.22;;;;;;;-144.30;49.88;83496.50;5109481;28;20202;-57
2023/06/16 08:58:30;;;;;;;9.50;8.18;;;;;;;-144.30;51.17;83599.81;5109677;28;20252;-61
2023/06/16 09:00:59;;;;;;;8.15;7.50;;;;;;;-144.30;51.11;83603.78;5109871;28;20209;-61
2023/06/16 09:03:27;;;;;;;11.07;7.47;;;;;;;-144.30;50.20;83548.16;5109826;28;20190;-61
2023/06/16 09:05:55;;;;;;;7.22;6.72;;;;;;;-144.30;50.50;83671.34;5109833;28;20237;-61
2023/06/16 09:08:22;;;;;;;9.57;7.93;;;;;;;-144.30;51.04;83770.69;5109746;28;20195;-57
2023/06/16 09:10:54;;;;;;;7.43;6.18;;;;;;;-144.30;51.47;83800.50;5109721;28;20246;-60
2023/06/16 09:13:21;;;;;;;7.18;6.53;;;;;;;-144.30;52.24;83874.00;5109827;28;20585;-56
2023/06/16 09:15:50;;;;;;;7.20;6.55;;;;;;;-144.30;52.97;83913.75;5109646;28;20337;-57
2023/06/16 09:18:17;;;;;;;7.63;7.13;;;;;;;-144.30;53.45;83881.97;5109302;28;20190;-61
2023/06/16 09:20:50;;;;;;;8.45;7.20;;;;;;;-144.30;53.14;83907.78;5109873;28;20205;-60
2023/06/16 09:23:27;;;;;;;7.38;6.63;;;;;;;-144.30;53.36;83850.16;5109280;28;20289;-62
2023/06/16 09:25:54;;;;;;;8.35;7.47;;;;;;;-144.30;54.59;83887.91;5107497;28;20202;-60
2023/06/16 09:28:35;;;;;;;8.82;8.07;;;;;;;-144.30;55.18;83858.09;5109597;28;20222;-61
2023/06/16 09:31:02;;;;;;;8.50;7.80;;;;;;;-144.30;56.47;83933.63;5107619;28;20198;-64
2023/06/16 09:33:30;;;;;;;10.75;7.60;;;;;;;-144.30;56.61;83953.50;5109020;28;20238;-60
2023/06/16 09:35:58;;;;;;;8.02;7.28;;;;;;;-144.30;57.81;83997.22;5109161;28;20204;-59
2023/06/16 09:38:27;;;;;;;7.43;6.35;;;;;;;-144.30;57.48;84019.06;5109178;28;20742;-56
2023/06/16 09:41:07;;;;;;;7.93;7.22;;;;;;;-144.30;58.05;84054.84;5109399;28;20807;-57
2023/06/16 09:43:34;;;;;;;7.63;6.20;;;;;;;-144.30;58.40;84108.50;5109026;28;20194;-57
2023/06/16 09:46:01;;;;;;;7.25;6.43;;;;;;;-144.30;58.45;84088.63;5109092;28;20198;-56
2023/06/16 09:48:28;;;;;;;6.28;5.78;;;;;;;-144.30;58.64;84100.53;5108708;28;20187;-57
2023/06/16 09:50:55;;;;;;;9.23;6.20;;;;;;;-144.30;57.87;84090.59;5108715;28;20210;-57
2023/06/16 09:53:23;;;;;;;8.68;6.10;;;;;;;-144.30;58.71;84132.34;5109023;28;20685;-56
2023/06/16 09:55:53;;;;;;;8.07;6.20;;;;;;;-144.30;58.74;84160.16;5108991;28;20206;-57
2023/06/16 09:58:21;;;;;;;7.45;6.68;;;;;;;-144.30;58.59;84134.31;5108740;28;20699;-56
2023/06/16 10:00:49;;;;;;;7.45;6.65;;;;;;;-144.30;58.10;84152.22;5108323;28;20210;-56
2023/06/16 10:03:16;;;;;;;8.05;7.30;;;;;;;-144.30;58.11;84128.34;5108750;28;20265;-57
2023/06/16 10:05:52;;;;;;;6.90;6.18;;;;;;;-144.30;57.21;84072.72;5108885;28;20194;-56
2023/06/16 10:08:20;;;;;;;6.95;5.32;;;;;;;-144.30;56.69;83999.19;5111211;28;20244;-56
2023/06/16 10:10:54;;;;;;;6.00;5.60;;;;;;;-144.30;55.98;84062.78;5111644;28;20193;-56
2023/06/16 10:13:23;;;;;;;7.15;6.20;;;;;;;-144.30;55.81;84078.69;5110825;28;20562;-57
2023/06/16 10:15:52;;;;;;;5.35;4.95;;;;;;;-144.30;55.56;84040.91;5112740;28;20209;-56
2023/06/16 10:18:21;;;;;;;6.75;6.25;;;;;;;-144.30;55.27;84072.72;5112903;28;20209;-56
2023/06/16 10:20:49;;;;;;;11.52;6.05;;;;;;;-144.30;55.03;84036.94;5113431;28;20224;-56
2023/06/16 10:23:17;;;;;;;5.45;4.97;;;;;;;-144.30;53.61;84056.81;5113109;28;20202;-60
2023/06/16 10:25:45;;;;;;;5.07;4.78;;;;;;;-144.30;53.67;83985.28;5113289;28;20739;-60
2023/06/16 10:28:14;;;;;;;5.22;4.70;;;;;;;-144.30;52.94;83969.38;5112986;28;20198;-61
2023/06/16 10:30:43;;;;;;;5.00;4.55;;;;;;;-144.30;53.02;83983.28;5112665;28;20201;-60
2023/06/16 10:33:18;;;;;;;4.95;4.40;;;;;;;-144.30;52.57;83919.72;5112392;28;20238;-57
2023/06/16 10:35:55;;;;;;;4.80;4.40;;;;;;;-144.30;51.84;83937.59;5113031;28;20202;-60
2023/06/16 10:38:33;;;;;;;7.00;4.47;;;;;;;-144.30;52.06;83969.38;5112561;28;20191;-61
2023/06/16 10:41:02;;;;;;;4.78;4.13;;;;;;;-144.30;51.60;83995.22;5112114;28;20577;-59
2023/06/16 10:43:30;;;;;;;4.40;4.10;;;;;;;-144.30;51.85;83975.34;5109590;28;20225;-60
2023/06/16 10:46:13;;;;;;;4.25;3.90;;;;;;;-144.30;51.38;84048.88;5112304;28;20633;-60
2023/06/16 10:48:58;;;;;;;4.68;3.78;;;;;;;-144.30;51.81;84064.78;5110928;28;20251;-60
2023/06/16 10:51:48;;;;;;;3.92;3.72;;;;;;;-144.30;51.68;84096.56;5111862;28;20576;-60
2023/06/16 10:54:17;;;;;;;4.00;3.80;;;;;;;-144.30;52.58;84082.66;5108853;28;20658;-60
2023/06/16 10:57:04;;;;;;;4.25;3.85;;;;;;;-144.30;53.47;84108.50;5112319;28;20237;-60
2023/06/16 10:59:53;;;;;;;4.05;3.75;;;;;;;-144.30;53.53;84084.66;5111867;28;21353;-61
2023/06/16 11:02:22;;;;;;;4.75;4.35;;;;;;;-144.30;53.29;84056.81;5109404;28;20209;-61
2023/06/16 11:05:10;;;;;;;4.63;4.22;;;;;;;-144.30;53.06;84044.91;5112219;28;20198;-61
2023/06/16 11:07:39;;;;;;;8.82;4.20;;;;;;;-144.30;53.13;84046.88;5103991;28;20580;-61
2023/06/16 11:10:07;;;;;;;7.05;4.22;;;;;;;-144.30;53.70;84036.94;5111639;28;20190;-56